Peru, Indiana
Current Conditions -  °F | °C
As of 9:03 AM on Saturday 20 Dec 2014 (Local Time) from KGUS Reporting Station
Haze Haze  
Wind Chill: 28°   Ceiling: 2700
Heat Index: 28°   Visibility: 5mi
Dew Point: 28°   Wind: 1mph
Humidity: 100%   Direction: 270°W
Pressure: 30.29"   Gusts: NA
Location:  40.75°N, 86.07°W
Report Text: KGUS 201403Z AUTO 27001KT 5SM BR OVC027 M02/M02 A3029 RMK AO2
Loading
Personal Weather Stations






























Interactive Weather Map New forecast layout! Learn more

10-Day Weather Forecast

Advertisements
Track Severe Weather on mobile